sensor_id;sensor_type;location;lat;lon;timestamp;pressure;altitude;pressure_sealevel;temperature;humidity
11499;BME280;5806;48.748;9.278;2024-02-23T00:02:11;98399.70;;;8.37;69.94
11499;BME280;5806;48.748;9.278;2024-02-23T00:04:38;98402.49;;;8.30;68.45
11499;BME280;5806;48.748;9.278;2024-02-23T00:07:06;98395.47;;;8.24;67.00
11499;BME280;5806;48.748;9.278;2024-02-23T00:09:34;98424.92;;;8.12;67.48
11499;BME280;5806;48.748;9.278;2024-02-23T00:12:01;98416.28;;;8.00;65.85
11499;BME280;5806;48.748;9.278;2024-02-23T00:14:30;98430.07;;;8.16;66.04
11499;BME280;5806;48.748;9.278;2024-02-23T00:17:02;98430.89;;;8.21;65.35
11499;BME280;5806;48.748;9.278;2024-02-23T00:19:31;98432.25;;;8.21;65.90
11499;BME280;5806;48.748;9.278;2024-02-23T00:21:58;98430.00;;;8.28;65.68
11499;BME280;5806;48.748;9.278;2024-02-23T00:24:26;98438.48;;;8.22;67.11
11499;BME280;5806;48.748;9.278;2024-02-23T00:26:54;98447.22;;;8.14;66.61
11499;BME280;5806;48.748;9.278;2024-02-23T00:29:22;98461.56;;;8.34;66.95
11499;BME280;5806;48.748;9.278;2024-02-23T00:31:49;98472.20;;;8.28;68.83
11499;BME280;5806;48.748;9.278;2024-02-23T00:34:17;98481.32;;;7.99;70.37
11499;BME280;5806;48.748;9.278;2024-02-23T00:36:44;98482.69;;;8.01;70.63
11499;BME280;5806;48.748;9.278;2024-02-23T00:39:12;98481.44;;;7.74;71.21
11499;BME280;5806;48.748;9.278;2024-02-23T00:41:39;98489.08;;;7.64;71.59
11499;BME280;5806;48.748;9.278;2024-02-23T00:44:07;98481.77;;;7.60;71.40
11499;BME280;5806;48.748;9.278;2024-02-23T00:46:34;98495.89;;;7.62;71.19
11499;BME280;5806;48.748;9.278;2024-02-23T00:49:01;98501.33;;;7.69;71.33
11499;BME280;5806;48.748;9.278;2024-02-23T00:51:29;98507.28;;;7.74;71.57
11499;BME280;5806;48.748;9.278;2024-02-23T00:53:56;98496.66;;;7.75;72.67
11499;BME280;5806;48.748;9.278;2024-02-23T00:56:24;98505.86;;;7.91;73.36
11499;BME280;5806;48.748;9.278;2024-02-23T00:58:52;98512.66;;;7.91;72.46
11499;BME280;5806;48.748;9.278;2024-02-23T01:01:19;98513.48;;;7.92;73.21
11499;BME280;5806;48.748;9.278;2024-02-23T01:03:47;98522.66;;;8.06;73.17
11499;BME280;5806;48.748;9.278;2024-02-23T01:06:14;98537.19;;;7.84;74.00
11499;BME280;5806;48.748;9.278;2024-02-23T01:08:43;98534.72;;;7.87;73.98
11499;BME280;5806;48.748;9.278;2024-02-23T01:11:11;98536.89;;;7.90;74.14
11499;BME280;5806;48.748;9.278;2024-02-23T01:13:38;98548.38;;;7.70;74.43
11499;BME280;5806;48.748;9.278;2024-02-23T01:16:05;98554.91;;;7.69;74.18
11499;BME280;5806;48.748;9.278;2024-02-23T01:18:33;98554.88;;;7.76;74.90
11499;BME280;5806;48.748;9.278;2024-02-23T01:21:00;98569.30;;;7.79;75.15
11499;BME280;5806;48.748;9.278;2024-02-23T01:23:28;98573.95;;;7.69;74.46
11499;BME280;5806;48.748;9.278;2024-02-23T01:25:55;98574.23;;;7.65;75.79
11499;BME280;5806;48.748;9.278;2024-02-23T01:28:24;98578.59;;;7.61;74.15
11499;BME280;5806;48.748;9.278;2024-02-23T01:30:52;98577.78;;;7.68;75.17
11499;BME280;5806;48.748;9.278;2024-02-23T01:33:19;98578.06;;;7.64;72.73
11499;BME280;5806;48.748;9.278;2024-02-23T01:35:46;98588.09;;;7.71;72.63
11499;BME280;5806;48.748;9.278;2024-02-23T01:38:14;98578.06;;;7.61;72.95
11499;BME280;5806;48.748;9.278;2024-02-23T01:40:43;98582.71;;;7.51;72.64
11499;BME280;5806;48.748;9.278;2024-02-23T01:43:10;98588.97;;;7.41;72.56
11499;BME280;5806;48.748;9.278;2024-02-23T01:45:38;98593.59;;;7.51;72.23
11499;BME280;5806;48.748;9.278;2024-02-23T01:48:06;98598.75;;;7.55;72.64
11499;BME280;5806;48.748;9.278;2024-02-23T01:50:34;98594.38;;;7.51;71.56
11499;BME280;5806;48.748;9.278;2024-02-23T01:53:02;98606.92;;;7.15;72.41
11499;BME280;5806;48.748;9.278;2024-02-23T01:55:30;98602.01;;;7.39;72.36
11499;BME280;5806;48.748;9.278;2024-02-23T01:57:59;98599.30;;;7.34;70.97
11499;BME280;5806;48.748;9.278;2024-02-23T02:00:28;98613.96;;;7.48;72.02
11499;BME280;5806;48.748;9.278;2024-02-23T02:02:57;98609.34;;;7.51;71.92
11499;BME280;5806;48.748;9.278;2024-02-23T02:05:25;98623.50;;;7.53;72.11
11499;BME280;5806;48.748;9.278;2024-02-23T02:07:53;98616.69;;;7.43;72.51
11499;BME280;5806;48.748;9.278;2024-02-23T02:10:24;98631.67;;;7.31;71.15
11499;BME280;5806;48.748;9.278;2024-02-23T02:12:53;98624.59;;;7.40;71.18
11499;BME280;5806;48.748;9.278;2024-02-23T02:15:20;98627.59;;;7.51;70.91
11499;BME280;5806;48.748;9.278;2024-02-23T02:17:48;98622.41;;;7.54;71.00
11499;BME280;5806;48.748;9.278;2024-02-23T02:20:17;98624.03;;;7.53;70.76
11499;BME280;5806;48.748;9.278;2024-02-23T02:22:45;98628.39;;;7.49;71.01
11499;BME280;5806;48.748;9.278;2024-02-23T02:25:14;98626.23;;;7.31;70.32
11499;BME280;5806;48.748;9.278;2024-02-23T02:27:43;98632.75;;;7.42;70.81
11499;BME280;5806;48.748;9.278;2024-02-23T02:30:12;98639.80;;;7.46;71.82
11499;BME280;5806;48.748;9.278;2024-02-23T02:32:40;98638.19;;;7.40;71.36
11499;BME280;5806;48.748;9.278;2024-02-23T02:35:10;98649.05;;;7.32;69.12
11499;BME280;5806;48.748;9.278;2024-02-23T02:37:36;98648.23;;;7.39;70.26
11499;BME280;5806;48.748;9.278;2024-02-23T02:40:04;98646.89;;;7.32;69.58
11499;BME280;5806;48.748;9.278;2024-02-23T02:42:32;98649.30;;;7.06;69.94
11499;BME280;5806;48.748;9.278;2024-02-23T02:45:00;98656.91;;;6.99;69.78
11499;BME280;5806;48.748;9.278;2024-02-23T02:47:28;98658.03;;;7.23;69.44
11499;BME280;5806;48.748;9.278;2024-02-23T02:49:56;98661.84;;;7.27;70.13
11499;BME280;5806;48.748;9.278;2024-02-23T02:52:23;98660.48;;;7.29;69.29
11499;BME280;5806;48.748;9.278;2024-02-23T02:54:51;98677.59;;;7.32;68.72
11499;BME280;5806;48.748;9.278;2024-02-23T02:57:18;98672.69;;;7.22;69.22
11499;BME280;5806;48.748;9.278;2024-02-23T02:59:46;98674.58;;;7.14;68.54
11499;BME280;5806;48.748;9.278;2024-02-23T03:02:15;98676.52;;;7.38;68.48
11499;BME280;5806;48.748;9.278;2024-02-23T03:04:49;98672.69;;;7.22;68.94
11499;BME280;5806;48.748;9.278;2024-02-23T03:07:17;98665.63;;;7.23;69.72
11499;BME280;5806;48.748;9.278;2024-02-23T03:09:45;98671.33;;;7.07;69.71
11499;BME280;5806;48.748;9.278;2024-02-23T03:12:12;98670.53;;;7.19;68.95
11499;BME280;5806;48.748;9.278;2024-02-23T03:14:39;98664.83;;;7.28;68.82
11499;BME280;5806;48.748;9.278;2024-02-23T03:17:08;98673.78;;;7.16;69.20
11499;BME280;5806;48.748;9.278;2024-02-23T03:19:36;98673.25;;;7.19;69.26
11499;BME280;5806;48.748;9.278;2024-02-23T03:22:04;98675.41;;;7.24;68.78
11499;BME280;5806;48.748;9.278;2024-02-23T03:24:31;98680.84;;;7.19;68.65
11499;BME280;5806;48.748;9.278;2024-02-23T03:26:59;98685.45;;;6.99;69.15
11499;BME280;5806;48.748;9.278;2024-02-23T03:29:26;98679.78;;;7.28;69.01
11499;BME280;5806;48.748;9.278;2024-02-23T03:31:57;98683.83;;;7.05;69.21
11499;BME280;5806;48.748;9.278;2024-02-23T03:34:25;98684.92;;;7.07;69.62
11499;BME280;5806;48.748;9.278;2024-02-23T03:36:52;98678.92;;;7.05;69.81
11499;BME280;5806;48.748;9.278;2024-02-23T03:39:20;98683.52;;;6.97;68.84
11499;BME280;5806;48.748;9.278;2024-02-23T03:41:47;98686.50;;;6.93;69.92
11499;BME280;5806;48.748;9.278;2024-02-23T03:44:14;98684.63;;;7.06;69.37
11499;BME280;5806;48.748;9.278;2024-02-23T03:46:42;98684.63;;;7.01;69.23
11499;BME280;5806;48.748;9.278;2024-02-23T03:49:09;98686.23;;;6.92;70.00
11499;BME280;5806;48.748;9.278;2024-02-23T03:51:38;98690.31;;;6.97;70.05
11499;BME280;5806;48.748;9.278;2024-02-23T03:54:06;98692.51;;;7.02;69.61
11499;BME280;5806;48.748;9.278;2024-02-23T03:56:41;98699.30;;;6.95;69.11
11499;BME280;5806;48.748;9.278;2024-02-23T03:59:09;98703.64;;;6.93;70.08
11499;BME280;5806;48.748;9.278;2024-02-23T04:01:38;98695.49;;;7.03;69.08
11499;BME280;5806;48.748;9.278;2024-02-23T04:04:06;98696.78;;;6.78;70.34
11499;BME280;5806;48.748;9.278;2024-02-23T04:06:34;98706.88;;;6.88;70.38
11499;BME280;5806;48.748;9.278;2024-02-23T04:09:02;98708.50;;;6.89;69.59
11499;BME280;5806;48.748;9.278;2024-02-23T04:11:31;98709.91;;;6.96;69.61
11499;BME280;5806;48.748;9.278;2024-02-23T04:13:59;98706.88;;;6.93;70.77
11499;BME280;5806;48.748;9.278;2024-02-23T04:16:27;98716.96;;;6.97;69.02
11499;BME280;5806;48.748;9.278;2024-02-23T04:18:55;98711.84;;;7.13;68.35
11499;BME280;5806;48.748;9.278;2024-02-23T04:21:22;98712.90;;;7.12;68.56
11499;BME280;5806;48.748;9.278;2024-02-23T04:23:50;98715.36;;;7.14;68.38
11499;BME280;5806;48.748;9.278;2024-02-23T04:26:17;98717.80;;;7.08;68.33
11499;BME280;5806;48.748;9.278;2024-02-23T04:28:45;98721.88;;;7.10;68.14
11499;BME280;5806;48.748;9.278;2024-02-23T04:31:12;98727.84;;;7.10;67.80
11499;BME280;5806;48.748;9.278;2024-02-23T04:33:40;98719.47;;;7.19;67.75
11499;BME280;5806;48.748;9.278;2024-02-23T04:36:07;98721.88;;;7.13;67.63
11499;BME280;5806;48.748;9.278;2024-02-23T04:38:35;98722.14;;;7.09;68.04
11499;BME280;5806;48.748;9.278;2024-02-23T04:41:05;98715.88;;;7.03;67.83
11499;BME280;5806;48.748;9.278;2024-02-23T04:43:33;98724.86;;;7.09;68.65
11499;BME280;5806;48.748;9.278;2024-02-23T04:46:00;98724.06;;;7.11;68.41
11499;BME280;5806;48.748;9.278;2024-02-23T04:48:28;98722.66;;;6.93;68.46
11499;BME280;5806;48.748;9.278;2024-02-23T04:50:57;98731.91;;;7.02;69.40
11499;BME280;5806;48.748;9.278;2024-02-23T04:53:25;98730.83;;;7.06;69.34
11499;BME280;5806;48.748;9.278;2024-02-23T04:55:53;98740.33;;;6.96;69.28
11499;BME280;5806;48.748;9.278;2024-02-23T04:58:20;98731.13;;;7.12;67.29
11499;BME280;5806;48.748;9.278;2024-02-23T05:00:48;98730.30;;;7.04;67.95
11499;BME280;5806;48.748;9.278;2024-02-23T05:03:15;98737.36;;;7.05;67.87
11499;BME280;5806;48.748;9.278;2024-02-23T05:05:43;98736.83;;;7.13;67.54
11499;BME280;5806;48.748;9.278;2024-02-23T05:08:10;98732.49;;;7.14;67.03
11499;BME280;5806;48.748;9.278;2024-02-23T05:10:38;98736.30;;;7.16;67.69
11499;BME280;5806;48.748;9.278;2024-02-23T05:13:05;98734.64;;;7.12;68.42
11499;BME280;5806;48.748;9.278;2024-02-23T05:15:32;98730.28;;;6.96;67.87
11499;BME280;5806;48.748;9.278;2024-02-23T05:18:00;98730.30;;;7.09;68.44
11499;BME280;5806;48.748;9.278;2024-02-23T05:20:27;98725.70;;;7.17;68.44
11499;BME280;5806;48.748;9.278;2024-02-23T05:22:55;98731.13;;;7.09;68.40
11499;BME280;5806;48.748;9.278;2024-02-23T05:25:22;98722.98;;;7.17;67.91
11499;BME280;5806;48.748;9.278;2024-02-23T05:27:51;98727.33;;;7.20;68.04
11499;BME280;5806;48.748;9.278;2024-02-23T05:30:19;98721.63;;;7.19;68.02
11499;BME280;5806;48.748;9.278;2024-02-23T05:32:48;98714.30;;;7.15;68.61
11499;BME280;5806;48.748;9.278;2024-02-23T05:35:15;98716.13;;;6.97;68.87
11499;BME280;5806;48.748;9.278;2024-02-23T05:37:43;98707.72;;;7.06;68.91
11499;BME280;5806;48.748;9.278;2024-02-23T05:40:10;98708.24;;;6.95;69.05
11499;BME280;5806;48.748;9.278;2024-02-23T05:42:38;98709.34;;;6.99;68.60
11499;BME280;5806;48.748;9.278;2024-02-23T05:45:07;98710.43;;;6.96;68.95
11499;BME280;5806;48.748;9.278;2024-02-23T05:47:37;98709.32;;;6.84;69.18
11499;BME280;5806;48.748;9.278;2024-02-23T05:50:05;98713.16;;;7.06;69.77
11499;BME280;5806;48.748;9.278;2024-02-23T05:52:33;98717.23;;;6.96;69.59
11499;BME280;5806;48.748;9.278;2024-02-23T05:55:02;98717.22;;;6.93;69.71
11499;BME280;5806;48.748;9.278;2024-02-23T05:57:31;98723.16;;;6.80;69.27
11499;BME280;5806;48.748;9.278;2024-02-23T05:59:59;98727.27;;;6.93;69.63
11499;BME280;5806;48.748;9.278;2024-02-23T06:02:26;98721.55;;;6.84;69.60
11499;BME280;5806;48.748;9.278;2024-02-23T06:04:54;98728.92;;;6.99;68.87
11499;BME280;5806;48.748;9.278;2024-02-23T06:07:21;98723.17;;;6.88;69.61
11499;BME280;5806;48.748;9.278;2024-02-23T06:09:50;98720.66;;;6.74;70.31
11499;BME280;5806;48.748;9.278;2024-02-23T06:12:18;98715.22;;;6.69;69.37
11499;BME280;5806;48.748;9.278;2024-02-23T06:14:45;98713.32;;;6.64;70.18
11499;BME280;5806;48.748;9.278;2024-02-23T06:17:13;98709.79;;;6.69;70.63
11499;BME280;5806;48.748;9.278;2024-02-23T06:19:40;98710.63;;;6.74;70.00
11499;BME280;5806;48.748;9.278;2024-02-23T06:22:08;98717.92;;;6.66;70.05
11499;BME280;5806;48.748;9.278;2024-02-23T06:24:37;98719.56;;;6.70;70.49
11499;BME280;5806;48.748;9.278;2024-02-23T06:27:04;98714.97;;;6.75;69.87
11499;BME280;5806;48.748;9.278;2024-02-23T06:29:32;98713.92;;;6.79;69.19
11499;BME280;5806;48.748;9.278;2024-02-23T06:31:59;98712.00;;;6.82;68.93
11499;BME280;5806;48.748;9.278;2024-02-23T06:34:28;98711.45;;;6.75;69.14
11499;BME280;5806;48.748;9.278;2024-02-23T06:36:56;98710.05;;;6.67;69.42
11499;BME280;5806;48.748;9.278;2024-02-23T06:39:23;98707.89;;;6.64;69.42
11499;BME280;5806;48.748;9.278;2024-02-23T06:41:50;98712.16;;;6.50;70.98
11499;BME280;5806;48.748;9.278;2024-02-23T06:44:18;98715.09;;;6.36;71.14
11499;BME280;5806;48.748;9.278;2024-02-23T06:46:45;98717.34;;;6.57;70.26
11499;BME280;5806;48.748;9.278;2024-02-23T06:49:13;98724.44;;;6.60;70.66
11499;BME280;5806;48.748;9.278;2024-02-23T06:51:40;98717.33;;;6.54;70.67
11499;BME280;5806;48.748;9.278;2024-02-23T06:54:08;98720.33;;;6.58;70.95
11499;BME280;5806;48.748;9.278;2024-02-23T06:56:35;98713.02;;;6.66;70.50
11499;BME280;5806;48.748;9.278;2024-02-23T06:59:03;98710.60;;;6.64;70.97
11499;BME280;5806;48.748;9.278;2024-02-23T07:01:30;98711.41;;;6.67;71.20
11499;BME280;5806;48.748;9.278;2024-02-23T07:03:59;98714.34;;;6.51;71.77
11499;BME280;5806;48.748;9.278;2024-02-23T07:06:27;98706.48;;;6.62;71.19
11499;BME280;5806;48.748;9.278;2024-02-23T07:08:56;98716.83;;;6.65;70.13
11499;BME280;5806;48.748;9.278;2024-02-23T07:11:23;98712.73;;;6.57;70.48
11499;BME280;5806;48.748;9.278;2024-02-23T07:13:51;98715.74;;;6.66;70.41
11499;BME280;5806;48.748;9.278;2024-02-23T07:16:18;98718.09;;;6.42;70.59
11499;BME280;5806;48.748;9.278;2024-02-23T07:18:45;98720.64;;;6.64;70.96
11499;BME280;5806;48.748;9.278;2024-02-23T07:21:13;98722.83;;;6.67;70.02
11499;BME280;5806;48.748;9.278;2024-02-23T07:23:40;98731.78;;;6.67;70.40
11499;BME280;5806;48.748;9.278;2024-02-23T07:26:08;98727.78;;;6.85;69.63
11499;BME280;5806;48.748;9.278;2024-02-23T07:28:35;98725.38;;;6.91;69.90
11499;BME280;5806;48.748;9.278;2024-02-23T07:31:03;98724.80;;;6.84;70.81
11499;BME280;5806;48.748;9.278;2024-02-23T07:33:30;98721.51;;;6.82;69.86
11499;BME280;5806;48.748;9.278;2024-02-23T07:35:58;98722.41;;;7.02;70.19
11499;BME280;5806;48.748;9.278;2024-02-23T07:38:25;98715.86;;;6.91;70.03
11499;BME280;5806;48.748;9.278;2024-02-23T07:40:53;98715.88;;;7.01;70.16
11499;BME280;5806;48.748;9.278;2024-02-23T07:43:20;98715.59;;;6.95;70.42
11499;BME280;5806;48.748;9.278;2024-02-23T07:45:48;98710.22;;;7.15;70.07
11499;BME280;5806;48.748;9.278;2024-02-23T07:48:15;98710.43;;;6.96;69.65
11499;BME280;5806;48.748;9.278;2024-02-23T07:50:42;98713.42;;;6.99;70.03
11499;BME280;5806;48.748;9.278;2024-02-23T07:53:10;98700.92;;;6.98;69.94
11499;BME280;5806;48.748;9.278;2024-02-23T07:55:37;98701.77;;;7.09;69.12
11499;BME280;5806;48.748;9.278;2024-02-23T07:58:05;98705.83;;;7.06;69.11
11499;BME280;5806;48.748;9.278;2024-02-23T08:00:32;98709.98;;;7.39;69.42
11499;BME280;5806;48.748;9.278;2024-02-23T08:03:01;98707.53;;;7.47;69.72
11499;BME280;5806;48.748;9.278;2024-02-23T08:05:29;98711.08;;;7.45;69.35
11499;BME280;5806;48.748;9.278;2024-02-23T08:07:56;98708.34;;;7.78;67.88
11499;BME280;5806;48.748;9.278;2024-02-23T08:10:24;98714.06;;;7.74;67.70
11499;BME280;5806;48.748;9.278;2024-02-23T08:12:52;98718.98;;;7.69;67.46
11499;BME280;5806;48.748;9.278;2024-02-23T08:15:19;98721.13;;;7.75;66.97
11499;BME280;5806;48.748;9.278;2024-02-23T08:17:46;98729.30;;;7.87;66.67
11499;BME280;5806;48.748;9.278;2024-02-23T08:20:14;98730.40;;;7.84;66.80
11499;BME280;5806;48.748;9.278;2024-02-23T08:22:41;98737.99;;;7.87;66.50
11499;BME280;5806;48.748;9.278;2024-02-23T08:25:09;98747.52;;;7.84;67.18
11499;BME280;5806;48.748;9.278;2024-02-23T08:27:36;98750.81;;;7.81;67.76
11499;BME280;5806;48.748;9.278;2024-02-23T08:30:04;98740.47;;;7.76;66.53
11499;BME280;5806;48.748;9.278;2024-02-23T08:32:32;98743.47;;;7.67;67.32
11499;BME280;5806;48.748;9.278;2024-02-23T08:35:00;98744.55;;;7.76;66.96
11499;BME280;5806;48.748;9.278;2024-02-23T08:37:27;98738.56;;;7.81;66.92
11499;BME280;5806;48.748;9.278;2024-02-23T08:39:54;98748.08;;;7.89;67.60
11499;BME280;5806;48.748;9.278;2024-02-23T08:42:22;98746.72;;;7.86;67.25
11499;BME280;5806;48.748;9.278;2024-02-23T08:44:50;98743.19;;;7.76;67.29
11499;BME280;5806;48.748;9.278;2024-02-23T08:47:17;98748.36;;;7.77;66.63
11499;BME280;5806;48.748;9.278;2024-02-23T08:49:45;98741.55;;;7.80;66.26
11499;BME280;5806;48.748;9.278;2024-02-23T08:52:12;98743.17;;;7.86;66.98
11499;BME280;5806;48.748;9.278;2024-02-23T08:54:40;98748.90;;;7.94;67.42
11499;BME280;5806;48.748;9.278;2024-02-23T08:57:07;98746.97;;;7.95;67.43
11499;BME280;5806;48.748;9.278;2024-02-23T08:59:35;98754.89;;;8.01;67.26
11499;BME280;5806;48.748;9.278;2024-02-23T09:02:03;98754.87;;;7.96;66.26
11499;BME280;5806;48.748;9.278;2024-02-23T09:04:30;98754.59;;;8.03;66.99
11499;BME280;5806;48.748;9.278;2024-02-23T09:06:58;98761.94;;;8.10;66.35
11499;BME280;5806;48.748;9.278;2024-02-23T09:09:25;98755.15;;;8.17;65.81
11499;BME280;5806;48.748;9.278;2024-02-23T09:11:52;98755.12;;;8.12;66.52
11499;BME280;5806;48.748;9.278;2024-02-23T09:14:20;98762.78;;;8.08;66.27
11499;BME280;5806;48.748;9.278;2024-02-23T09:16:47;98753.79;;;8.05;65.84
11499;BME280;5806;48.748;9.278;2024-02-23T09:19:18;98759.77;;;8.14;65.73
11499;BME280;5806;48.748;9.278;2024-02-23T09:21:46;98762.22;;;8.06;65.67
11499;BME280;5806;48.748;9.278;2024-02-23T09:24:14;98761.97;;;8.25;65.39
11499;BME280;5806;48.748;9.278;2024-02-23T09:26:41;98766.03;;;8.07;63.95
11499;BME280;5806;48.748;9.278;2024-02-23T09:29:09;98765.77;;;8.09;63.94
11499;BME280;5806;48.748;9.278;2024-02-23T09:31:36;98769.31;;;8.12;65.36
11499;BME280;5806;48.748;9.278;2024-02-23T09:34:04;98776.11;;;8.27;64.43
11499;BME280;5806;48.748;9.278;2024-02-23T09:36:31;98772.55;;;8.19;64.39
11499;BME280;5806;48.748;9.278;2024-02-23T09:38:58;98775.56;;;8.20;62.91
11499;BME280;5806;48.748;9.278;2024-02-23T09:41:27;98762.22;;;8.28;62.95
11499;BME280;5806;48.748;9.278;2024-02-23T09:44:00;98763.03;;;8.34;63.55
11499;BME280;5806;48.748;9.278;2024-02-23T09:46:28;98760.56;;;8.37;63.45
11499;BME280;5806;48.748;9.278;2024-02-23T09:48:56;98752.11;;;8.49;63.61
11499;BME280;5806;48.748;9.278;2024-02-23T09:51:25;98754.88;;;8.29;62.66
11499;BME280;5806;48.748;9.278;2024-02-23T09:53:53;98749.67;;;8.45;63.66
11499;BME280;5806;48.748;9.278;2024-02-23T09:56:22;98749.34;;;8.66;62.07
11499;BME280;5806;48.748;9.278;2024-02-23T09:58:51;98750.41;;;8.73;62.10
11499;BME280;5806;48.748;9.278;2024-02-23T10:01:24;98753.38;;;8.84;62.17
11499;BME280;5806;48.748;9.278;2024-02-23T10:03:50;98751.80;;;8.68;61.37
11499;BME280;5806;48.748;9.278;2024-02-23T10:06:17;98756.72;;;8.61;62.97
11499;BME280;5806;48.748;9.278;2024-02-23T10:08:45;98753.70;;;8.65;62.31
11499;BME280;5806;48.748;9.278;2024-02-23T10:11:12;98759.40;;;8.76;62.50
11499;BME280;5806;48.748;9.278;2024-02-23T10:13:41;98763.20;;;8.72;62.56
11499;BME280;5806;48.748;9.278;2024-02-23T10:16:09;98778.47;;;8.71;62.55
11499;BME280;5806;48.748;9.278;2024-02-23T10:18:38;98771.89;;;8.84;62.30
11499;BME280;5806;48.748;9.278;2024-02-23T10:21:06;98769.94;;;8.95;62.39
11499;BME280;5806;48.748;9.278;2024-02-23T10:23:33;98769.92;;;8.97;60.13
11499;BME280;5806;48.748;9.278;2024-02-23T10:26:00;98780.06;;;8.84;60.33
11499;BME280;5806;48.748;9.278;2024-02-23T10:28:28;98776.81;;;8.82;62.12
11499;BME280;5806;48.748;9.278;2024-02-23T10:30:55;98776.81;;;8.82;62.07
11499;BME280;5806;48.748;9.278;2024-02-23T10:33:23;98793.50;;;8.61;60.86
11499;BME280;5806;48.748;9.278;2024-02-23T10:35:55;98778.81;;;8.52;61.70
11499;BME280;5806;48.748;9.278;2024-02-23T10:38:27;98784.24;;;8.57;61.33
11499;BME280;5806;48.748;9.278;2024-02-23T10:40:56;98787.22;;;8.68;62.09
11499;BME280;5806;48.748;9.278;2024-02-23T10:43:28;98782.05;;;8.66;60.70
11499;BME280;5806;48.748;9.278;2024-02-23T10:45:54;98776.03;;;8.67;61.48
11499;BME280;5806;48.748;9.278;2024-02-23T10:48:21;98781.23;;;8.61;61.38
11499;BME280;5806;48.748;9.278;2024-02-23T10:50:50;98780.10;;;8.77;62.07
11499;BME280;5806;48.748;9.278;2024-02-23T10:53:19;98791.23;;;8.90;60.57
11499;BME280;5806;48.748;9.278;2024-02-23T10:55:56;98793.95;;;8.93;61.48
11499;BME280;5806;48.748;9.278;2024-02-23T10:58:18;98794.53;;;8.82;63.17
11499;BME280;5806;48.748;9.278;2024-02-23T11:00:46;98791.73;;;8.97;63.77
11499;BME280;5806;48.748;9.278;2024-02-23T11:03:15;98786.27;;;9.00;63.70
11499;BME280;5806;48.748;9.278;2024-02-23T11:05:43;98781.70;;;8.83;62.82
11499;BME280;5806;48.748;9.278;2024-02-23T11:08:13;98792.61;;;8.88;62.31
11499;BME280;5806;48.748;9.278;2024-02-23T11:10:43;98790.94;;;8.97;63.39
11499;BME280;5806;48.748;9.278;2024-02-23T11:13:10;98785.77;;;8.93;67.94
11499;BME280;5806;48.748;9.278;2024-02-23T11:15:41;98791.53;;;8.84;68.34
11499;BME280;5806;48.748;9.278;2024-02-23T11:18:27;98778.11;;;8.95;67.96
11499;BME280;5806;48.748;9.278;2024-02-23T11:20:58;98782.78;;;8.87;65.41
11499;BME280;5806;48.748;9.278;2024-02-23T11:23:25;98779.50;;;8.90;65.36
11499;BME280;5806;48.748;9.278;2024-02-23T11:26:06;98774.34;;;8.86;63.83
11499;BME280;5806;48.748;9.278;2024-02-23T11:28:47;98781.91;;;8.99;62.88
11499;BME280;5806;48.748;9.278;2024-02-23T11:31:25;98775.89;;;9.04;63.17
11499;BME280;5806;48.748;9.278;2024-02-23T11:33:54;98775.85;;;9.17;63.24
11499;BME280;5806;48.748;9.278;2024-02-23T11:36:29;98783.47;;;9.17;62.88
11499;BME280;5806;48.748;9.278;2024-02-23T11:38:58;98774.77;;;9.15;62.52
11499;BME280;5806;48.748;9.278;2024-02-23T11:41:27;98781.70;;;8.88;62.15
11499;BME280;5806;48.748;9.278;2024-02-23T11:43:56;98779.73;;;9.03;62.98
11499;BME280;5806;48.748;9.278;2024-02-23T11:46:24;98777.06;;;8.86;62.08
11499;BME280;5806;48.748;9.278;2024-02-23T11:48:52;98780.23;;;9.08;63.18
11499;BME280;5806;48.748;9.278;2024-02-23T11:51:23;98780.56;;;8.96;63.35
11499;BME280;5806;48.748;9.278;2024-02-23T11:53:52;98772.94;;;8.98;64.36
11499;BME280;5806;48.748;9.278;2024-02-23T11:56:22;98778.40;;;8.91;63.68
11499;BME280;5806;48.748;9.278;2024-02-23T11:58:50;98767.47;;;9.01;62.83
11499;BME280;5806;48.748;9.278;2024-02-23T12:01:18;98759.58;;;8.97;62.73
11499;BME280;5806;48.748;9.278;2024-02-23T12:03:45;98769.92;;;8.97;63.96
11499;BME280;5806;48.748;9.278;2024-02-23T12:06:18;98761.39;;;9.16;64.23
11499;BME280;5806;48.748;9.278;2024-02-23T12:08:43;98757.90;;;9.06;62.99
11499;BME280;5806;48.748;9.278;2024-02-23T12:11:13;98753.80;;;9.08;61.74
11499;BME280;5806;48.748;9.278;2024-02-23T12:13:41;98767.20;;;8.97;62.11
11499;BME280;5806;48.748;9.278;2024-02-23T12:16:09;98761.19;;;9.00;62.75
11499;BME280;5806;48.748;9.278;2024-02-23T12:18:37;98769.41;;;8.95;62.44
11499;BME280;5806;48.748;9.278;2024-02-23T12:21:08;98763.19;;;8.82;62.07
11499;BME280;5806;48.748;9.278;2024-02-23T12:23:43;98767.44;;;9.06;62.20
11499;BME280;5806;48.748;9.278;2024-02-23T12:26:13;98761.22;;;8.95;62.56
11499;BME280;5806;48.748;9.278;2024-02-23T12:28:41;98764.47;;;8.97;62.53
11499;BME280;5806;48.748;9.278;2024-02-23T12:31:09;98760.67;;;8.98;62.43
11499;BME280;5806;48.748;9.278;2024-02-23T12:33:40;98756.56;;;9.01;63.23
11499;BME280;5806;48.748;9.278;2024-02-23T12:36:10;98763.09;;;9.00;62.65
11499;BME280;5806;48.748;9.278;2024-02-23T12:38:37;98758.45;;;9.03;62.71
11499;BME280;5806;48.748;9.278;2024-02-23T12:41:05;98757.66;;;9.02;62.75
11499;BME280;5806;48.748;9.278;2024-02-23T12:43:32;98766.60;;;9.13;62.80
11499;BME280;5806;48.748;9.278;2024-02-23T12:46:00;98760.90;;;9.04;63.20
11499;BME280;5806;48.748;9.278;2024-02-23T12:48:29;98760.05;;;9.11;62.75
11499;BME280;5806;48.748;9.278;2024-02-23T12:50:57;98763.79;;;9.25;62.95
11499;BME280;5806;48.748;9.278;2024-02-23T12:53:41;98765.91;;;9.36;62.57
11499;BME280;5806;48.748;9.278;2024-02-23T12:56:13;98760.23;;;9.30;61.73
11499;BME280;5806;48.748;9.278;2024-02-23T12:58:43;98755.29;;;9.37;62.15
11499;BME280;5806;48.748;9.278;2024-02-23T13:01:11;98757.42;;;9.45;62.80
11499;BME280;5806;48.748;9.278;2024-02-23T13:03:39;98757.13;;;9.49;61.72
11499;BME280;5806;48.748;9.278;2024-02-23T13:06:08;98751.86;;;9.57;61.13
11499;BME280;5806;48.748;9.278;2024-02-23T13:08:35;98758.98;;;9.53;60.96
11499;BME280;5806;48.748;9.278;2024-02-23T13:11:05;98753.20;;;9.65;61.59
11499;BME280;5806;48.748;9.278;2024-02-23T13:13:32;98749.86;;;9.73;61.82
11499;BME280;5806;48.748;9.278;2024-02-23T13:16:02;98751.73;;;9.75;61.07
11499;BME280;5806;48.748;9.278;2024-02-23T13:18:29;98751.14;;;9.83;58.77
11499;BME280;5806;48.748;9.278;2024-02-23T13:20:57;98759.93;;;9.75;59.91
11499;BME280;5806;48.748;9.278;2024-02-23T13:23:24;98764.00;;;9.77;60.36
11499;BME280;5806;48.748;9.278;2024-02-23T13:25:52;98753.23;;;9.57;60.57
11499;BME280;5806;48.748;9.278;2024-02-23T13:28:19;98757.10;;;9.51;61.28